Time;durP1;ratioP1;P1;durP2;ratioP2;P2;SDS_P1;SDS_P2;PMS_P1;PMS_P2;Temp;Humidity;BMP_temperature;BMP_pressure;BME280_temperature;BME280_humidity;BME280_pressure;Samples;Min_cycle;Max_cycle;Signal;HPM_P1;HPM_P2
2022/06/27 07:49:16;;;;;;;5.47;5.18;;;;;;;;;;1762422;24;21961;-58
2022/06/27 07:50:09;;;;;;;9.73;5.60;;;;;;;;;;1594222;30;21625;-59
2022/06/27 07:51:02;;;;;;;5.80;5.50;;;;;;;;;;1599759;30;21617;-59
2022/06/27 07:51:53;;;;;;;4.90;4.60;;;;;;;;;;1595894;30;21562;-59
2022/06/27 07:54:00;;;;;;;5.50;5.07;;;;;;;;;;1586951;30;22032;-60
2022/06/27 07:54:51;;;;;;;6.03;5.57;;;;;;;;;;1599039;30;22419;-59
2022/06/27 07:55:47;;;;;;;6.07;5.60;;;;;;;;;;1602580;30;21965;-58
2022/06/27 07:56:40;;;;;;;5.60;5.20;;;;;;;;;;1601857;30;21622;-58
2022/06/27 07:57:32;;;;;;;5.78;5.38;;;;;;;;;;1600359;30;21622;-60
2022/06/27 07:58:30;;;;;;;5.85;5.45;;;;;;;;;;1602749;30;21598;-59
2022/06/27 07:59:25;;;;;;;6.68;6.07;;;;;;;;;;1602516;30;22097;-59
2022/06/27 08:00:16;;;;;;;7.00;6.43;;;;;;;;;;1598458;30;21664;-57
2022/06/27 08:01:10;;;;;;;8.95;6.38;;;;;;;;;;1604542;30;21869;-58
2022/06/27 08:02:02;;;;;;;8.82;6.15;;;;;;;;;;1597328;30;21628;-58
2022/06/27 08:02:54;;;;;;;7.32;6.50;;;;;;;;;;1591868;30;21585;-58
2022/06/27 08:03:48;;;;;;;6.82;6.32;;;;;;;;;;1591361;30;22608;-57
2022/06/27 08:04:42;;;;;;;6.88;6.35;;;;;;;;;;1599220;30;21645;-58
2022/06/27 08:05:33;;;;;;;6.85;6.25;;;;;;;;;;1596117;30;21615;-58
2022/06/27 08:06:28;;;;;;;7.03;6.43;;;;;;;;;;1600911;30;22441;-59
2022/06/27 08:07:19;;;;;;;6.57;6.05;;;;;;;;;;1600506;30;21847;-59
2022/06/27 08:08:12;;;;;;;6.53;6.13;;;;;;;;;;1605108;30;22294;-60
2022/06/27 08:09:06;;;;;;;6.50;6.00;;;;;;;;;;1598047;30;21601;-57
2022/06/27 08:09:57;;;;;;;6.50;6.03;;;;;;;;;;1604134;30;22452;-59
2022/06/27 08:10:50;;;;;;;7.28;6.60;;;;;;;;;;1601716;30;22097;-59
2022/06/27 08:11:44;;;;;;;6.90;6.40;;;;;;;;;;1598198;30;22572;-58
2022/06/27 08:12:36;;;;;;;7.00;6.32;;;;;;;;;;1602147;30;22499;-58
2022/06/27 08:13:29;;;;;;;8.00;7.20;;;;;;;;;;1600766;30;21650;-57
2022/06/27 08:14:21;;;;;;;6.63;6.03;;;;;;;;;;1600759;30;21889;-59
2022/06/27 08:15:13;;;;;;;6.40;6.00;;;;;;;;;;1602486;30;21614;-58
2022/06/27 08:16:07;;;;;;;6.75;6.25;;;;;;;;;;1600063;30;21585;-58
2022/06/27 08:16:59;;;;;;;7.25;6.75;;;;;;;;;;1596793;30;21658;-58
2022/06/27 08:17:52;;;;;;;6.95;6.35;;;;;;;;;;1599590;30;21683;-58
2022/06/27 08:18:44;;;;;;;6.47;5.97;;;;;;;;;;1600621;30;21853;-59
2022/06/27 08:19:38;;;;;;;6.65;6.25;;;;;;;;;;1597297;30;21827;-59
2022/06/27 08:20:32;;;;;;;7.35;6.65;;;;;;;;;;1599541;30;21830;-60
2022/06/27 08:21:27;;;;;;;6.47;6.07;;;;;;;;;;1599646;30;22044;-59
2022/06/27 08:22:21;;;;;;;6.93;6.43;;;;;;;;;;1596449;30;21611;-58
2022/06/27 08:23:15;;;;;;;7.47;6.85;;;;;;;;;;1600047;30;21827;-58
2022/06/27 08:24:09;;;;;;;6.90;6.30;;;;;;;;;;1598116;30;21615;-58
2022/06/27 08:25:01;;;;;;;9.40;6.00;;;;;;;;;;1602217;30;21756;-59
2022/06/27 08:25:53;;;;;;;7.05;6.45;;;;;;;;;;1602059;30;22354;-58
2022/06/27 08:26:49;;;;;;;6.78;6.30;;;;;;;;;;1602303;30;22485;-59
2022/06/27 08:27:41;;;;;;;7.90;7.10;;;;;;;;;;1598609;30;21653;-59
2022/06/27 08:28:33;;;;;;;6.97;6.47;;;;;;;;;;1594794;30;21656;-57
2022/06/27 08:29:25;;;;;;;16.88;6.18;;;;;;;;;;1593983;30;21746;-57
2022/06/27 08:30:17;;;;;;;14.73;7.18;;;;;;;;;;1596040;30;21650;-59
2022/06/27 08:31:13;;;;;;;12.50;7.07;;;;;;;;;;1600814;30;22037;-59
2022/06/27 08:32:05;;;;;;;6.40;5.90;;;;;;;;;;1601779;30;21614;-59
2022/06/27 08:32:59;;;;;;;7.22;6.45;;;;;;;;;;1597335;30;21607;-59
2022/06/27 08:33:55;;;;;;;10.55;7.15;;;;;;;;;;1600124;30;22085;-60
2022/06/27 08:34:47;;;;;;;8.98;6.45;;;;;;;;;;1597793;30;21662;-60
2022/06/27 08:35:44;;;;;;;7.00;6.50;;;;;;;;;;1595794;30;21737;-59
2022/06/27 08:36:39;;;;;;;10.07;6.85;;;;;;;;;;1601718;30;21834;-58
2022/06/27 08:37:30;;;;;;;8.40;6.65;;;;;;;;;;1599339;30;21649;-58
2022/06/27 08:38:23;;;;;;;9.48;6.93;;;;;;;;;;1599062;30;21583;-59
2022/06/27 08:39:18;;;;;;;18.83;6.75;;;;;;;;;;1596998;30;21588;-59
2022/06/27 08:40:13;;;;;;;9.85;6.82;;;;;;;;;;1601850;30;22210;-59
2022/06/27 08:41:06;;;;;;;8.20;6.20;;;;;;;;;;1599165;30;21922;-58
2022/06/27 08:41:58;;;;;;;10.63;6.72;;;;;;;;;;1597253;30;21628;-59
2022/06/27 08:42:50;;;;;;;8.13;7.30;;;;;;;;;;1600100;30;21628;-59
2022/06/27 08:43:43;;;;;;;7.40;6.90;;;;;;;;;;1599736;30;21756;-59
2022/06/27 08:44:36;;;;;;;7.53;6.80;;;;;;;;;;1596597;30;21925;-59
2022/06/27 08:45:30;;;;;;;7.05;6.55;;;;;;;;;;1599988;30;22313;-60
2022/06/27 08:46:22;;;;;;;10.10;7.10;;;;;;;;;;1599398;30;22419;-61
2022/06/27 08:47:16;;;;;;;6.38;5.97;;;;;;;;;;1597728;30;22598;-59
2022/06/27 08:48:08;;;;;;;6.07;5.57;;;;;;;;;;1603041;30;22546;-59
2022/06/27 08:49:00;;;;;;;7.47;6.88;;;;;;;;;;1605781;30;21947;-59
2022/06/27 08:49:52;;;;;;;6.43;6.03;;;;;;;;;;1603263;30;22227;-59
2022/06/27 08:50:48;;;;;;;12.95;6.07;;;;;;;;;;1606521;30;22862;-59
2022/06/27 08:51:39;;;;;;;12.95;5.97;;;;;;;;;;1605703;30;21663;-58
2022/06/27 08:52:32;;;;;;;5.85;5.38;;;;;;;;;;1602603;30;21928;-59
2022/06/27 08:53:25;;;;;;;6.85;6.13;;;;;;;;;;1604774;30;21892;-59
2022/06/27 08:54:17;;;;;;;6.53;6.13;;;;;;;;;;1604152;30;21969;-58
2022/06/27 08:55:09;;;;;;;5.82;5.43;;;;;;;;;;1604102;30;21795;-59
2022/06/27 08:56:03;;;;;;;7.80;6.03;;;;;;;;;;1613276;30;21775;-60
2022/06/27 08:56:55;;;;;;;6.22;5.78;;;;;;;;;;1612738;30;21733;-59
2022/06/27 08:57:48;;;;;;;9.88;5.50;;;;;;;;;;1605363;30;21622;-60
2022/06/27 08:58:42;;;;;;;6.53;5.90;;;;;;;;;;1606925;30;22704;-59
2022/06/27 08:59:34;;;;;;;6.20;5.80;;;;;;;;;;1612138;30;21835;-59
2022/06/27 09:00:26;;;;;;;6.25;5.70;;;;;;;;;;1604340;30;21665;-57
2022/06/27 09:01:22;;;;;;;8.07;6.10;;;;;;;;;;1606399;30;21591;-59
2022/06/27 09:02:17;;;;;;;6.53;6.07;;;;;;;;;;1605419;30;21936;-58
2022/06/27 09:03:10;;;;;;;6.63;6.07;;;;;;;;;;1605977;30;21800;-59
2022/06/27 09:04:06;;;;;;;16.67;5.80;;;;;;;;;;1609645;30;21654;-59
2022/06/27 09:04:59;;;;;;;7.22;5.65;;;;;;;;;;1613182;30;21688;-60
2022/06/27 09:06:02;;;;;;;7.25;6.65;;;;;;;;;;1611562;30;22070;-58
2022/06/27 09:06:56;;;;;;;6.93;6.25;;;;;;;;;;1614028;30;21671;-59
2022/06/27 09:07:52;;;;;;;6.55;5.47;;;;;;;;;;1614490;30;21581;-61
2022/06/27 09:09:05;;;;;;;6.22;5.82;;;;;;;;;;1611581;30;21794;-58
2022/06/27 09:10:23;;;;;;;6.50;5.97;;;;;;;;;;1601329;30;21680;-59
2022/06/27 09:11:28;;;;;;;7.13;6.32;;;;;;;;;;1601338;30;22726;-56
2022/06/27 09:12:20;;;;;;;6.72;6.07;;;;;;;;;;1608724;30;21644;-57
2022/06/27 09:13:15;;;;;;;6.53;5.93;;;;;;;;;;1607957;30;21760;-58
2022/06/27 09:14:32;;;;;;;10.02;7.43;;;;;;;;;;1608990;30;21635;-58
2022/06/27 09:15:29;;;;;;;15.85;9.45;;;;;;;;;;1607951;30;22514;-58
2022/06/27 09:16:21;;;;;;;15.35;10.98;;;;;;;;;;1612035;30;22099;-58
2022/06/27 09:17:15;;;;;;;12.40;8.68;;;;;;;;;;1611810;30;22018;-57
2022/06/27 09:18:08;;;;;;;12.93;6.88;;;;;;;;;;1615594;30;21673;-59
2022/06/27 09:19:01;;;;;;;7.22;6.65;;;;;;;;;;1613647;30;21772;-58
2022/06/27 09:19:55;;;;;;;14.80;6.40;;;;;;;;;;1608697;30;21611;-58
2022/06/27 09:20:51;;;;;;;8.75;8.02;;;;;;;;;;1610235;30;21784;-59
2022/06/27 09:21:45;;;;;;;10.30;9.30;;;;;;;;;;1614081;30;22157;-59
2022/06/27 09:22:37;;;;;;;9.63;8.73;;;;;;;;;;1611219;30;22552;-59
2022/06/27 09:23:40;;;;;;;7.68;7.10;;;;;;;;;;1604857;30;21634;-59
2022/06/27 09:24:33;;;;;;;8.23;7.63;;;;;;;;;;1603119;30;21694;-59
2022/06/27 09:25:28;;;;;;;7.03;6.43;;;;;;;;;;1609512;30;21606;-59
2022/06/27 09:26:22;;;;;;;7.35;6.70;;;;;;;;;;1610766;30;21821;-60
2022/06/27 09:27:43;;;;;;;7.60;7.10;;;;;;;;;;1611489;30;21623;-59
2022/06/27 09:28:41;;;;;;;;;;;;;;;;;;1611540;30;21786;-58
2022/06/27 09:29:34;;;;;;;8.75;6.70;;;;;;;;;;1602867;30;21443;-58
2022/06/27 09:30:27;;;;;;;7.22;6.53;;;;;;;;;;1605876;30;21646;-59
2022/06/27 09:31:35;;;;;;;7.05;6.53;;;;;;;;;;1610375;30;21612;-59
2022/06/27 09:32:27;;;;;;;9.93;6.28;;;;;;;;;;1609640;30;22311;-58
2022/06/27 09:33:20;;;;;;;11.95;5.82;;;;;;;;;;1610470;30;21624;-60
2022/06/27 09:34:17;;;;;;;6.85;6.45;;;;;;;;;;1609193;30;21841;-58
2022/06/27 09:35:23;;;;;;;7.05;6.35;;;;;;;;;;1612732;30;21643;-58
2022/06/27 09:36:17;;;;;;;6.38;5.88;;;;;;;;;;1609964;30;21654;-59
2022/06/27 09:37:11;;;;;;;6.75;6.15;;;;;;;;;;1611811;30;21607;-59
2022/06/27 09:38:06;;;;;;;8.60;6.30;;;;;;;;;;1613504;30;21774;-58
2022/06/27 09:38:57;;;;;;;7.20;6.63;;;;;;;;;;1611507;30;21749;-58
2022/06/27 09:39:50;;;;;;;7.30;6.70;;;;;;;;;;1612740;30;22066;-58
2022/06/27 09:40:41;;;;;;;10.52;6.05;;;;;;;;;;1613960;30;21776;-59
2022/06/27 09:41:36;;;;;;;11.23;5.75;;;;;;;;;;1612609;30;21645;-59
2022/06/27 09:42:28;;;;;;;36.40;15.70;;;;;;;;;;1612181;30;21634;-57
2022/06/27 09:43:23;;;;;;;70.50;26.65;;;;;;;;;;1612925;30;22088;-61
2022/06/27 09:44:21;;;;;;;38.80;17.88;;;;;;;;;;1609786;30;21622;-59
2022/06/27 09:45:15;;;;;;;33.10;15.38;;;;;;;;;;1611466;30;21635;-59
2022/06/27 09:46:10;;;;;;;23.58;13.30;;;;;;;;;;1612858;30;21562;-58
2022/06/27 09:47:08;;;;;;;31.45;13.60;;;;;;;;;;1607270;30;22037;-60
2022/06/27 09:48:02;;;;;;;18.88;8.10;;;;;;;;;;1613807;30;22071;-59
2022/06/27 09:48:56;;;;;;;8.75;6.95;;;;;;;;;;1612331;30;21996;-59
2022/06/27 09:49:50;;;;;;;6.60;6.18;;;;;;;;;;1606026;30;21677;-59
2022/06/27 09:50:44;;;;;;;6.95;6.30;;;;;;;;;;1609458;30;21962;-60
2022/06/27 09:51:36;;;;;;;7.28;6.00;;;;;;;;;;1603408;30;21705;-59
2022/06/27 09:52:30;;;;;;;6.75;6.00;;;;;;;;;;1605763;30;22246;-60
2022/06/27 09:53:26;;;;;;;6.63;5.57;;;;;;;;;;1604671;30;21920;-59
2022/06/27 09:54:20;;;;;;;11.02;6.65;;;;;;;;;;1604343;30;22253;-58
2022/06/27 09:55:14;;;;;;;8.60;6.55;;;;;;;;;;1603755;30;21772;-59
2022/06/27 09:56:08;;;;;;;9.68;6.60;;;;;;;;;;1605156;30;21629;-59
2022/06/27 09:57:03;;;;;;;5.95;5.55;;;;;;;;;;1606168;30;22267;-58
2022/06/27 09:57:56;;;;;;;9.57;5.30;;;;;;;;;;1604293;30;21634;-58
2022/06/27 09:58:49;;;;;;;6.78;5.47;;;;;;;;;;1607060;30;21606;-59
2022/06/27 09:59:43;;;;;;;5.78;5.38;;;;;;;;;;1609411;30;21645;-58
2022/06/27 10:00:36;;;;;;;8.48;5.40;;;;;;;;;;1604865;30;22365;-57
2022/06/27 10:01:28;;;;;;;9.13;5.50;;;;;;;;;;1605921;30;21888;-60
2022/06/27 10:02:22;;;;;;;6.80;5.90;;;;;;;;;;1607398;30;22264;-57
2022/06/27 10:03:14;;;;;;;7.13;6.43;;;;;;;;;;1603552;30;21594;-60
2022/06/27 10:04:07;;;;;;;6.07;5.60;;;;;;;;;;1603153;30;21614;-60
2022/06/27 10:04:59;;;;;;;9.32;6.10;;;;;;;;;;1605393;30;21783;-59
2022/06/27 10:05:51;;;;;;;24.55;9.35;;;;;;;;;;1606004;30;22190;-60
2022/06/27 10:06:43;;;;;;;7.30;6.45;;;;;;;;;;1607827;30;21600;-59
2022/06/27 10:07:38;;;;;;;19.10;12.93;;;;;;;;;;1608944;30;21635;-59
2022/06/27 10:08:31;;;;;;;9.48;8.68;;;;;;;;;;1608151;30;22477;-61
2022/06/27 10:09:25;;;;;;;9.43;8.73;;;;;;;;;;1600528;30;21619;-59
2022/06/27 10:10:16;;;;;;;9.15;8.40;;;;;;;;;;1595655;30;22620;-59
2022/06/27 10:11:11;;;;;;;12.82;9.80;;;;;;;;;;1602969;30;22499;-59
2022/06/27 10:12:25;;;;;;;9.43;7.97;;;;;;;;;;1605953;30;21629;-59
2022/06/27 10:13:16;;;;;;;12.25;8.80;;;;;;;;;;1606050;30;21604;-59
2022/06/27 10:14:21;;;;;;;8.52;7.82;;;;;;;;;;1604202;30;22673;-58
2022/06/27 10:15:26;;;;;;;11.63;8.25;;;;;;;;;;1607887;30;21684;-58
2022/06/27 10:16:18;;;;;;;25.45;16.33;;;;;;;;;;1601357;30;21647;-58
2022/06/27 10:17:14;;;;;;;11.68;10.48;;;;;;;;;;1603368;30;22558;-58
2022/06/27 10:18:07;;;;;;;11.25;10.30;;;;;;;;;;1607696;30;22554;-59
2022/06/27 10:19:04;;;;;;;13.63;10.18;;;;;;;;;;1608232;30;21676;-59
2022/06/27 10:20:09;;;;;;;11.43;10.07;;;;;;;;;;1602436;30;21663;-59
2022/06/27 10:21:26;;;;;;;22.65;20.45;;;;;;;;;;1597727;30;21646;-59
2022/06/27 10:22:25;;;;;;;12.05;10.80;;;;;;;;;;1603590;30;22188;-57
2022/06/27 10:23:28;;;;;;;17.23;12.00;;;;;;;;;;1600993;30;21803;-59
2022/06/27 10:24:33;;;;;;;11.80;10.90;;;;;;;;;;1598799;30;21689;-58
2022/06/27 10:25:36;;;;;;;14.52;11.55;;;;;;;;;;1599416;30;21617;-60
2022/06/27 10:26:41;;;;;;;27.33;14.02;;;;;;;;;;1598771;30;21683;-58
2022/06/27 10:27:32;;;;;;;15.70;11.70;;;;;;;;;;1603071;30;22023;-58
2022/06/27 10:28:26;;;;;;;13.93;12.60;;;;;;;;;;1605300;30;22209;-59
2022/06/27 10:29:33;;;;;;;15.55;12.07;;;;;;;;;;1605388;30;21667;-59
2022/06/27 10:30:41;;;;;;;16.98;10.85;;;;;;;;;;1607635;30;22703;-59
2022/06/27 10:31:44;;;;;;;14.82;13.32;;;;;;;;;;1600240;30;21614;-58
2022/06/27 10:32:44;;;;;;;12.82;11.43;;;;;;;;;;1599838;30;22194;-59
2022/06/27 10:33:37;;;;;;;17.65;15.95;;;;;;;;;;1603141;30;21880;-58
2022/06/27 10:35:11;;;;;;;18.65;12.77;;;;;;;;;;1599245;30;22256;-60
2022/06/27 10:36:10;;;;;;;14.43;11.02;;;;;;;;;;1591626;30;21599;-61
2022/06/27 10:37:35;;;;;;;13.27;12.05;;;;;;;;;;1595988;30;21789;-60
2022/06/27 10:38:32;;;;;;;14.25;13.20;;;;;;;;;;1605289;30;22383;-59
2022/06/27 10:39:24;;;;;;;13.05;11.98;;;;;;;;;;1604721;30;21722;-59
2022/06/27 10:40:44;;;;;;;11.43;10.43;;;;;;;;;;1607243;30;21672;-59
2022/06/27 10:41:41;;;;;;;17.08;14.90;;;;;;;;;;1591578;30;21636;-59
2022/06/27 10:42:47;;;;;;;17.88;15.80;;;;;;;;;;1594655;30;21605;-59
2022/06/27 10:43:46;;;;;;;13.23;11.75;;;;;;;;;;1605664;30;21676;-59
2022/06/27 10:44:37;;;;;;;12.27;11.27;;;;;;;;;;1603249;30;22006;-61
2022/06/27 10:45:30;;;;;;;154.95;71.95;;;;;;;;;;1604453;30;22395;-59
2022/06/27 10:46:43;;;;;;;16.63;12.13;;;;;;;;;;1603044;30;22250;-60
2022/06/27 10:47:35;;;;;;;10.80;9.90;;;;;;;;;;1607249;30;21757;-59
2022/06/27 10:48:35;;;;;;;90.18;74.22;;;;;;;;;;1606369;30;22064;-58
2022/06/27 10:49:29;;;;;;;39.17;31.52;;;;;;;;;;1607590;30;21676;-59
2022/06/27 10:50:24;;;;;;;21.00;19.33;;;;;;;;;;1613283;30;21755;-58
2022/06/27 10:51:26;;;;;;;31.95;28.30;;;;;;;;;;1610759;30;22380;-59
2022/06/27 10:52:29;;;;;;;22.33;18.65;;;;;;;;;;1611486;30;21688;-58
2022/06/27 10:53:24;;;;;;;22.75;19.98;;;;;;;;;;1608052;30;22009;-59
2022/06/27 10:54:18;;;;;;;85.60;43.70;;;;;;;;;;1609008;30;22020;-57
2022/06/27 10:55:23;;;;;;;57.22;33.92;;;;;;;;;;1609853;30;21726;-58
2022/06/27 10:56:34;;;;;;;34.28;23.25;;;;;;;;;;1611284;30;21616;-59
2022/06/27 10:57:44;;;;;;;29.58;26.25;;;;;;;;;;1604036;30;22108;-58
2022/06/27 10:58:37;;;;;;;21.17;18.90;;;;;;;;;;1605942;30;21672;-58
2022/06/27 11:00:04;;;;;;;26.52;23.90;;;;;;;;;;1614141;30;21651;-58
2022/06/27 11:01:13;;;;;;;25.85;20.40;;;;;;;;;;1603537;30;21653;-59
2022/06/27 11:02:16;;;;;;;18.02;16.55;;;;;;;;;;1607477;30;21683;-58
2022/06/27 11:03:11;;;;;;;19.23;17.45;;;;;;;;;;1608092;30;21815;-58
2022/06/27 11:04:02;;;;;;;21.08;16.63;;;;;;;;;;1607163;30;21853;-58
2022/06/27 11:04:56;;;;;;;17.10;15.90;;;;;;;;;;1605493;30;21664;-58
2022/06/27 11:05:59;;;;;;;16.83;15.35;;;;;;;;;;1606635;30;21700;-58
2022/06/27 11:06:57;;;;;;;15.18;13.93;;;;;;;;;;1612331;30;22566;-58
2022/06/27 11:07:54;;;;;;;15.65;14.00;;;;;;;;;;1602677;30;21911;-58
2022/06/27 11:08:48;;;;;;;27.42;17.70;;;;;;;;;;1599541;30;22592;-57
2022/06/27 11:09:46;;;;;;;25.98;16.40;;;;;;;;;;1598229;30;21640;-58
2022/06/27 11:10:38;;;;;;;14.75;12.85;;;;;;;;;;1597344;30;22485;-58
2022/06/27 11:11:30;;;;;;;15.77;11.90;;;;;;;;;;1605895;30;22311;-58
2022/06/27 11:12:32;;;;;;;10.98;10.10;;;;;;;;;;1609094;30;22859;-59
2022/06/27 11:13:45;;;;;;;11.88;10.75;;;;;;;;;;1612067;30;21771;-57
2022/06/27 11:14:44;;;;;;;10.40;9.63;;;;;;;;;;1602184;30;21724;-58
2022/06/27 11:15:37;;;;;;;10.68;9.93;;;;;;;;;;1596712;30;21957;-58
2022/06/27 11:16:30;;;;;;;10.65;9.73;;;;;;;;;;1610760;30;21718;-60
2022/06/27 11:17:41;;;;;;;9.60;8.75;;;;;;;;;;1603942;30;21663;-60
2022/06/27 11:18:43;;;;;;;8.13;7.53;;;;;;;;;;1604409;30;22411;-58
2022/06/27 11:20:46;;;;;;;18.25;14.13;;;;;;;;;;1596543;30;21711;-57
2022/06/27 11:21:38;;;;;;;38.63;22.58;;;;;;;;;;1604347;30;21655;-58
2022/06/27 11:22:34;;;;;;;17.77;15.05;;;;;;;;;;1609532;30;21792;-57
2022/06/27 11:23:26;;;;;;;11.35;9.55;;;;;;;;;;1613717;30;21638;-57
2022/06/27 11:24:18;;;;;;;9.30;8.60;;;;;;;;;;1611911;30;22696;-59
2022/06/27 11:25:13;;;;;;;15.50;8.93;;;;;;;;;;1612886;30;22335;-58
2022/06/27 11:26:06;;;;;;;8.75;8.02;;;;;;;;;;1608603;30;22458;-57
2022/06/27 11:27:00;;;;;;;8.13;7.53;;;;;;;;;;1607146;30;22268;-58
2022/06/27 11:27:56;;;;;;;8.98;7.72;;;;;;;;;;1606882;30;21775;-58
2022/06/27 11:32:27;;;;;;;10.60;7.32;;;;;;;;;;1610312;30;22103;-60
2022/06/27 11:33:21;;;;;;;7.88;7.22;;;;;;;;;;1611731;30;21659;-59
2022/06/27 11:34:14;;;;;;;6.88;6.38;;;;;;;;;;1610038;30;21647;-60
2022/06/27 11:35:07;;;;;;;6.65;6.15;;;;;;;;;;1610488;30;21792;-60
2022/06/27 11:36:00;;;;;;;9.48;5.35;;;;;;;;;;1614951;30;21972;-59
2022/06/27 11:36:52;;;;;;;14.60;6.50;;;;;;;;;;1604015;30;21979;-57
2022/06/27 11:37:46;;;;;;;10.35;6.43;;;;;;;;;;1604625;30;22229;-58
2022/06/27 11:38:45;;;;;;;6.38;5.60;;;;;;;;;;1608774;30;21706;-58
2022/06/27 11:39:40;;;;;;;6.30;5.80;;;;;;;;;;1612015;30;21676;-57
2022/06/27 11:40:35;;;;;;;6.32;5.68;;;;;;;;;;1613109;30;21919;-58
2022/06/27 11:41:32;;;;;;;6.78;6.07;;;;;;;;;;1612869;30;21613;-58
2022/06/27 11:42:28;;;;;;;6.10;5.38;;;;;;;;;;1611305;30;21669;-58
2022/06/27 11:43:21;;;;;;;10.23;7.78;;;;;;;;;;1608664;30;21590;-58
2022/06/27 11:44:14;;;;;;;17.95;9.88;;;;;;;;;;1609724;30;21633;-58
2022/06/27 11:45:09;;;;;;;8.27;6.88;;;;;;;;;;1612826;30;22379;-58
2022/06/27 11:46:01;;;;;;;6.35;5.95;;;;;;;;;;1610580;30;21616;-58
2022/06/27 11:47:03;;;;;;;6.72;6.28;;;;;;;;;;1610232;30;22641;-57
2022/06/27 11:47:55;;;;;;;11.57;6.55;;;;;;;;;;1612611;30;21741;-58
2022/06/27 11:48:52;;;;;;;7.50;6.25;;;;;;;;;;1614521;30;22590;-60
2022/06/27 11:49:44;;;;;;;8.35;7.00;;;;;;;;;;1610782;30;22320;-58
2022/06/27 11:50:36;;;;;;;7.05;6.32;;;;;;;;;;1610383;30;22017;-58
2022/06/27 11:51:33;;;;;;;10.25;6.53;;;;;;;;;;1609294;30;21613;-57
2022/06/27 11:52:36;;;;;;;7.15;6.30;;;;;;;;;;1612410;30;21883;-59
2022/06/27 11:53:27;;;;;;;7.20;6.70;;;;;;;;;;1606086;30;21986;-59
2022/06/27 11:54:22;;;;;;;7.15;6.40;;;;;;;;;;1606791;30;21656;-58
2022/06/27 11:55:15;;;;;;;8.20;7.18;;;;;;;;;;1612311;30;21938;-59
2022/06/27 11:56:25;;;;;;;10.05;6.93;;;;;;;;;;1611391;30;21775;-62
2022/06/27 11:57:24;;;;;;;6.78;6.18;;;;;;;;;;1610679;30;21996;-59
2022/06/27 11:58:17;;;;;;;7.82;6.18;;;;;;;;;;1610445;30;21844;-60
2022/06/27 11:59:13;;;;;;;7.13;6.22;;;;;;;;;;1608100;30;22060;-59
2022/06/27 12:00:07;;;;;;;5.50;5.07;;;;;;;;;;1608852;30;21655;-59
2022/06/27 12:01:10;;;;;;;7.10;6.32;;;;;;;;;;1605909;30;21677;-60
2022/06/27 12:02:04;;;;;;;11.48;5.63;;;;;;;;;;1603509;30;21601;-59
2022/06/27 12:03:05;;;;;;;13.95;5.78;;;;;;;;;;1609978;30;21659;-60
2022/06/27 12:04:14;;;;;;;8.65;5.78;;;;;;;;;;1605541;30;21825;-58
2022/06/27 12:05:09;;;;;;;8.02;5.05;;;;;;;;;;1603937;30;21603;-60
2022/06/27 12:06:14;;;;;;;6.43;5.93;;;;;;;;;;1606061;30;22547;-59
2022/06/27 12:07:09;;;;;;;9.05;5.88;;;;;;;;;;1605400;30;21657;-58
2022/06/27 12:08:05;;;;;;;13.70;5.80;;;;;;;;;;1605724;30;22337;-60
2022/06/27 12:09:02;;;;;;;10.20;6.35;;;;;;;;;;1604535;30;21681;-59
2022/06/27 12:09:53;;;;;;;7.22;6.70;;;;;;;;;;1611679;30;21682;-58
2022/06/27 12:11:16;;;;;;;14.63;6.07;;;;;;;;;;1613768;30;22276;-58
2022/06/27 12:12:04;;;;;;;7.57;5.20;;;;;;;;;;1608983;30;21670;-59
2022/06/27 12:12:58;;;;;;;7.63;5.63;;;;;;;;;;1604215;30;21631;-58
2022/06/27 12:13:50;;;;;;;6.03;5.15;;;;;;;;;;1607225;30;21746;-59
2022/06/27 12:14:48;;;;;;;6.53;5.70;;;;;;;;;;1608817;30;21700;-59
2022/06/27 12:15:42;;;;;;;9.13;5.50;;;;;;;;;;1608353;30;21632;-60
2022/06/27 12:16:49;;;;;;;7.95;5.70;;;;;;;;;;1612317;30;21640;-59
2022/06/27 12:17:41;;;;;;;11.50;5.45;;;;;;;;;;1605512;30;21690;-58
2022/06/27 12:18:34;;;;;;;6.43;5.55;;;;;;;;;;1608673;30;21785;-60
2022/06/27 12:19:28;;;;;;;12.95;6.50;;;;;;;;;;1608486;30;22238;-59
2022/06/27 12:20:20;;;;;;;14.75;7.10;;;;;;;;;;1611627;30;22748;-60
2022/06/27 12:21:13;;;;;;;10.32;6.50;;;;;;;;;;1609979;30;21799;-59
2022/06/27 12:22:06;;;;;;;9.95;5.88;;;;;;;;;;1612330;30;21643;-59
2022/06/27 12:22:58;;;;;;;11.98;6.07;;;;;;;;;;1608924;30;22615;-59
2022/06/27 12:23:50;;;;;;;10.68;5.50;;;;;;;;;;1609276;30;21744;-60
2022/06/27 12:24:42;;;;;;;6.35;5.38;;;;;;;;;;1611989;30;22754;-57
2022/06/27 12:25:35;;;;;;;8.95;6.00;;;;;;;;;;1608316;30;21652;-60
2022/06/27 12:26:28;;;;;;;6.95;6.30;;;;;;;;;;1610326;30;21730;-61
2022/06/27 12:27:21;;;;;;;7.10;6.53;;;;;;;;;;1609323;30;21657;-61
2022/06/27 12:28:14;;;;;;;6.40;5.82;;;;;;;;;;1605626;30;22080;-61
2022/06/27 12:29:06;;;;;;;6.88;6.28;;;;;;;;;;1601964;30;22585;-59
2022/06/27 12:29:58;;;;;;;9.02;6.60;;;;;;;;;;1607108;30;22272;-61
2022/06/27 12:30:51;;;;;;;9.57;6.47;;;;;;;;;;1605694;30;22065;-66
2022/06/27 12:31:44;;;;;;;9.02;6.80;;;;;;;;;;1607536;30;22717;-66
2022/06/27 12:32:35;;;;;;;8.82;6.13;;;;;;;;;;1608253;30;21713;-65
2022/06/27 12:33:28;;;;;;;6.90;6.30;;;;;;;;;;1611081;30;21694;-65
2022/06/27 12:34:21;;;;;;;7.95;6.80;;;;;;;;;;1610375;30;22266;-65
2022/06/27 12:35:14;;;;;;;6.95;6.53;;;;;;;;;;1611013;30;22438;-65
2022/06/27 12:36:07;;;;;;;10.43;7.15;;;;;;;;;;1609617;30;21598;-65
2022/06/27 12:36:59;;;;;;;11.35;7.35;;;;;;;;;;1606871;30;22120;-65
2022/06/27 12:37:50;;;;;;;10.18;6.72;;;;;;;;;;1607048;30;21579;-65
2022/06/27 12:38:43;;;;;;;7.97;6.93;;;;;;;;;;1610298;30;21699;-67
2022/06/27 12:39:35;;;;;;;11.77;6.10;;;;;;;;;;1605136;30;21900;-65
2022/06/27 12:40:27;;;;;;;8.40;5.43;;;;;;;;;;1606849;30;22418;-65
2022/06/27 12:41:20;;;;;;;9.73;7.07;;;;;;;;;;1609433;30;22696;-65
2022/06/27 12:42:13;;;;;;;9.23;6.82;;;;;;;;;;1610985;30;21598;-65
2022/06/27 12:43:07;;;;;;;10.50;6.75;;;;;;;;;;1606226;30;22484;-65
2022/06/27 12:43:59;;;;;;;7.25;6.63;;;;;;;;;;1601517;30;21756;-65
2022/06/27 12:44:51;;;;;;;6.75;6.25;;;;;;;;;;1604497;30;21704;-65
2022/06/27 12:45:44;;;;;;;6.97;6.38;;;;;;;;;;1611562;30;22311;-65
2022/06/27 12:46:36;;;;;;;7.10;6.47;;;;;;;;;;1612042;30;22432;-66
2022/06/27 12:47:29;;;;;;;11.45;6.22;;;;;;;;;;1611818;30;21652;-65
2022/06/27 12:48:20;;;;;;;11.10;6.43;;;;;;;;;;1608119;30;22738;-63
2022/06/27 12:49:13;;;;;;;8.73;7.82;;;;;;;;;;1607216;30;22482;-65
2022/06/27 12:50:06;;;;;;;8.50;7.70;;;;;;;;;;1610449;30;21900;-64
2022/06/27 12:50:59;;;;;;;13.27;7.75;;;;;;;;;;1611627;30;21600;-64
2022/06/27 12:51:51;;;;;;;12.98;8.63;;;;;;;;;;1609661;30;21734;-63
2022/06/27 12:52:42;;;;;;;15.80;8.25;;;;;;;;;;1610495;30;21659;-64
2022/06/27 12:53:35;;;;;;;9.57;8.57;;;;;;;;;;1609716;30;21735;-63
2022/06/27 12:54:26;;;;;;;10.00;8.68;;;;;;;;;;1604602;30;21688;-64
2022/06/27 12:55:19;;;;;;;10.25;9.35;;;;;;;;;;1606838;30;22443;-64
2022/06/27 12:56:11;;;;;;;12.68;9.15;;;;;;;;;;1607884;30;22627;-64
2022/06/27 12:57:05;;;;;;;27.33;11.65;;;;;;;;;;1606922;30;22156;-64
2022/06/27 12:57:56;;;;;;;18.35;10.85;;;;;;;;;;1607677;30;22096;-64
2022/06/27 12:58:50;;;;;;;10.57;9.57;;;;;;;;;;1602938;30;21783;-64
2022/06/27 12:59:41;;;;;;;15.38;10.80;;;;;;;;;;1607454;30;21733;-66
2022/06/27 13:00:34;;;;;;;11.05;10.05;;;;;;;;;;1607076;30;21927;-65
2022/06/27 13:01:25;;;;;;;13.77;10.25;;;;;;;;;;1609813;30;21675;-65
2022/06/27 13:02:18;;;;;;;15.23;12.77;;;;;;;;;;1612801;30;21665;-65
2022/06/27 13:03:09;;;;;;;22.70;12.63;;;;;;;;;;1611252;30;22662;-65
2022/06/27 13:04:01;;;;;;;16.75;12.13;;;;;;;;;;1609278;30;22210;-64
2022/06/27 13:04:52;;;;;;;15.95;12.82;;;;;;;;;;1610966;30;21845;-65
2022/06/27 13:05:45;;;;;;;16.58;11.45;;;;;;;;;;1611797;30;22685;-64
2022/06/27 13:06:37;;;;;;;13.98;10.68;;;;;;;;;;1600556;30;21674;-65
2022/06/27 13:07:29;;;;;;;16.63;12.32;;;;;;;;;;1606441;30;22313;-64
2022/06/27 13:08:22;;;;;;;20.58;12.95;;;;;;;;;;1607508;30;21647;-67
2022/06/27 13:09:15;;;;;;;21.33;15.65;;;;;;;;;;1608513;30;21896;-65
2022/06/27 13:10:08;;;;;;;29.63;15.00;;;;;;;;;;1607371;30;21663;-64
2022/06/27 13:11:00;;;;;;;24.98;15.70;;;;;;;;;;1607274;30;21635;-63
2022/06/27 13:11:52;;;;;;;18.58;11.48;;;;;;;;;;1602285;30;21719;-64
2022/06/27 13:12:46;;;;;;;19.27;15.05;;;;;;;;;;1606836;30;21790;-64
2022/06/27 13:13:38;;;;;;;14.60;11.02;;;;;;;;;;1609311;30;21814;-64
2022/06/27 13:14:32;;;;;;;13.52;10.65;;;;;;;;;;1612081;30;21698;-64
2022/06/27 13:15:24;;;;;;;23.13;14.50;;;;;;;;;;1615694;30;21742;-64
2022/06/27 13:16:16;;;;;;;15.68;10.55;;;;;;;;;;1611794;30;22222;-64
2022/06/27 13:17:08;;;;;;;20.27;13.00;;;;;;;;;;1610159;30;21672;-64
2022/06/27 13:18:00;;;;;;;18.48;12.77;;;;;;;;;;1613155;30;21675;-64
2022/06/27 13:18:52;;;;;;;14.63;12.43;;;;;;;;;;1612805;30;21783;-64
2022/06/27 13:19:44;;;;;;;24.67;14.32;;;;;;;;;;1610848;30;21637;-63
2022/06/27 13:20:36;;;;;;;28.58;19.30;;;;;;;;;;1613413;30;22192;-64
2022/06/27 13:21:29;;;;;;;31.00;17.52;;;;;;;;;;1612761;30;21655;-65
2022/06/27 13:22:20;;;;;;;28.65;17.88;;;;;;;;;;1611192;30;21647;-64
2022/06/27 13:23:13;;;;;;;28.17;16.98;;;;;;;;;;1611683;30;21795;-66
2022/06/27 13:24:06;;;;;;;20.38;12.52;;;;;;;;;;1611172;30;22553;-64